createdAt,value
2023-04-29T00:00:08.697Z,20.17
2023-04-29T00:02:35.663Z,20.16
2023-04-29T00:05:05.476Z,20.15
2023-04-29T00:07:32.551Z,20.13
2023-04-29T00:09:59.440Z,20.12
2023-04-29T00:12:26.349Z,20.11
2023-04-29T00:14:53.070Z,20.10
2023-04-29T00:17:19.627Z,20.10
2023-04-29T00:19:46.137Z,20.09
2023-04-29T00:22:12.669Z,20.07
2023-04-29T00:24:39.200Z,20.07
2023-04-29T00:27:06.600Z,20.05
2023-04-29T00:29:33.152Z,20.04
2023-04-29T00:32:00.008Z,20.04
2023-04-29T00:34:26.695Z,20.03
2023-04-29T00:36:53.278Z,20.02
2023-04-29T00:39:19.777Z,20.01
2023-04-29T00:41:46.436Z,20.01
2023-04-29T00:44:12.952Z,20.00
2023-04-29T00:46:39.723Z,19.99
2023-04-29T00:49:06.976Z,19.99
2023-04-29T00:51:34.426Z,19.98
2023-04-29T00:54:00.988Z,19.97
2023-04-29T00:56:30.910Z,19.96
2023-04-29T00:58:58.131Z,19.96
2023-04-29T01:01:24.721Z,19.95
2023-04-29T01:03:51.605Z,19.94
2023-04-29T01:06:18.634Z,19.93
2023-04-29T01:09:00.206Z,19.93
2023-04-29T01:11:34.737Z,19.92
2023-04-29T01:14:05.496Z,19.90
2023-04-29T01:16:49.199Z,19.89
2023-04-29T01:19:20.305Z,19.89
2023-04-29T01:21:51.145Z,19.90
2023-04-29T01:24:17.948Z,19.88
2023-04-29T01:26:55.118Z,19.87
2023-04-29T01:29:44.892Z,19.86
2023-04-29T01:32:23.111Z,19.86
2023-04-29T01:35:04.647Z,19.84
2023-04-29T01:37:47.202Z,19.82
2023-04-29T01:40:22.547Z,19.82
2023-04-29T01:43:01.531Z,19.81
2023-04-29T01:45:29.147Z,19.82
2023-04-29T01:47:58.768Z,19.79
2023-04-29T01:50:25.535Z,19.79
2023-04-29T01:52:52.118Z,19.77
2023-04-29T01:55:18.890Z,19.76
2023-04-29T01:57:45.448Z,19.75
2023-04-29T02:00:12.229Z,19.72
2023-04-29T02:02:39.109Z,19.72
2023-04-29T02:05:05.892Z,19.71
2023-04-29T02:07:32.421Z,19.71
2023-04-29T02:09:58.986Z,19.70
2023-04-29T02:12:25.794Z,19.68
2023-04-29T02:14:53.360Z,19.68
2023-04-29T02:17:19.888Z,19.66
2023-04-29T02:19:46.487Z,19.65
2023-04-29T02:22:13.031Z,19.65
2023-04-29T02:24:39.529Z,19.64
2023-04-29T02:27:06.806Z,19.63
2023-04-29T02:29:33.451Z,19.63
2023-04-29T02:32:00.088Z,19.62
2023-04-29T02:34:26.661Z,19.61
2023-04-29T02:36:53.589Z,19.60
2023-04-29T02:39:20.630Z,19.59
2023-04-29T02:41:47.179Z,19.57
2023-04-29T02:44:13.719Z,19.56
2023-04-29T02:46:45.182Z,19.56
2023-04-29T02:49:13.451Z,19.55
2023-04-29T02:51:41.309Z,19.55
2023-04-29T02:54:07.910Z,19.53
2023-04-29T02:56:34.459Z,19.53
2023-04-29T02:59:01.213Z,19.52
2023-04-29T03:01:27.829Z,19.50
2023-04-29T03:03:54.885Z,19.51
2023-04-29T03:06:21.596Z,19.49
2023-04-29T03:08:48.118Z,19.49
2023-04-29T03:11:14.640Z,19.47
2023-04-29T03:13:41.230Z,19.47
2023-04-29T03:16:08.547Z,19.47
2023-04-29T03:18:35.101Z,19.46
2023-04-29T03:21:04.340Z,19.44
2023-04-29T03:23:30.937Z,19.44
2023-04-29T03:25:57.629Z,19.44
2023-04-29T03:28:24.232Z,19.44
2023-04-29T03:30:50.974Z,19.43
2023-04-29T03:33:17.514Z,19.42
2023-04-29T03:35:44.975Z,19.42
2023-04-29T03:38:11.728Z,19.40
2023-04-29T03:40:38.351Z,19.40
2023-04-29T03:43:04.934Z,19.40
2023-04-29T03:45:31.603Z,19.38
2023-04-29T03:47:58.127Z,19.38
2023-04-29T03:50:25.471Z,19.38
2023-04-29T03:52:52.215Z,19.37
2023-04-29T03:55:18.731Z,19.37
2023-04-29T03:57:45.305Z,19.36
2023-04-29T04:00:12.519Z,19.36
2023-04-29T04:02:39.227Z,19.35
2023-04-29T04:05:06.125Z,19.35
2023-04-29T04:07:32.783Z,19.34
2023-04-29T04:09:59.331Z,19.33
2023-04-29T04:12:25.829Z,19.33
2023-04-29T04:14:53.018Z,19.32
2023-04-29T04:17:19.774Z,19.31
2023-04-29T04:19:46.337Z,19.32
2023-04-29T04:22:13.159Z,19.31
2023-04-29T04:24:39.723Z,19.31
2023-04-29T04:27:07.144Z,19.29
2023-04-29T04:29:33.691Z,19.30
2023-04-29T04:32:00.494Z,19.28
2023-04-29T04:34:27.224Z,19.28
2023-04-29T04:36:53.814Z,19.28
2023-04-29T04:39:20.352Z,19.28
2023-04-29T04:41:46.924Z,19.27
2023-04-29T04:44:14.194Z,19.27
2023-04-29T04:46:40.751Z,19.27
2023-04-29T04:49:07.777Z,19.25
2023-04-29T04:51:34.271Z,19.24
2023-04-29T04:54:00.862Z,19.24
2023-04-29T04:56:27.411Z,19.23
2023-04-29T04:58:53.946Z,19.24
2023-04-29T05:01:20.679Z,19.23
2023-04-29T05:03:47.491Z,19.22
2023-04-29T05:06:14.682Z,19.22
2023-04-29T05:08:41.224Z,19.21
2023-04-29T05:11:16.162Z,19.20
2023-04-29T05:13:42.668Z,19.20
2023-04-29T05:16:09.244Z,19.20
2023-04-29T05:18:36.110Z,19.19
2023-04-29T05:21:02.677Z,19.19
2023-04-29T05:23:29.261Z,19.19
2023-04-29T05:25:55.986Z,19.18
2023-04-29T05:28:22.509Z,19.17
2023-04-29T05:30:51.981Z,19.18
2023-04-29T05:33:18.587Z,19.17
2023-04-29T05:35:45.100Z,19.17
2023-04-29T05:38:11.631Z,19.16
2023-04-29T05:40:38.436Z,19.17
2023-04-29T05:43:04.909Z,19.16
2023-04-29T05:45:31.431Z,19.17
2023-04-29T05:47:57.987Z,19.17
2023-04-29T05:50:24.598Z,19.17
2023-04-29T05:52:51.891Z,19.17
2023-04-29T05:55:18.509Z,19.17
2023-04-29T05:57:45.001Z,19.19
2023-04-29T06:00:11.900Z,19.19
2023-04-29T06:02:50.692Z,19.20
2023-04-29T06:05:24.767Z,19.21
2023-04-29T06:07:51.992Z,19.22
2023-04-29T06:10:19.103Z,19.22
2023-04-29T06:12:47.015Z,19.22
2023-04-29T06:15:13.609Z,19.23
2023-04-29T06:17:40.326Z,19.24
2023-04-29T06:20:07.534Z,19.24
2023-04-29T06:22:34.043Z,19.24
2023-04-29T06:25:00.691Z,19.25
2023-04-29T06:27:28.206Z,19.24
2023-04-29T06:29:54.912Z,19.25
2023-04-29T06:32:21.715Z,19.28
2023-04-29T06:34:48.205Z,19.28
2023-04-29T06:37:14.764Z,19.30
2023-04-29T06:39:41.330Z,19.32
2023-04-29T06:42:07.937Z,19.33
2023-04-29T06:44:34.475Z,19.35
2023-04-29T06:47:01.156Z,19.37
2023-04-29T06:49:27.707Z,19.38
2023-04-29T06:51:54.260Z,19.39
2023-04-29T06:54:21.427Z,19.39
2023-04-29T06:56:48.512Z,19.40
2023-04-29T06:59:15.330Z,19.40
2023-04-29T07:01:44.210Z,19.40
2023-04-29T07:04:12.110Z,19.40
2023-04-29T07:06:39.108Z,19.42
2023-04-29T07:09:05.709Z,19.43
2023-04-29T07:11:32.309Z,19.45
2023-04-29T07:13:58.867Z,19.46
2023-04-29T07:16:26.590Z,19.47
2023-04-29T07:18:53.302Z,19.49
2023-04-29T07:21:19.883Z,19.50
2023-04-29T07:23:46.465Z,19.52
2023-04-29T07:26:15.449Z,19.53
2023-04-29T07:28:42.636Z,19.53
2023-04-29T07:31:09.527Z,19.54
2023-04-29T07:33:36.313Z,19.51
2023-04-29T07:36:03.938Z,19.48
2023-04-29T07:38:30.799Z,19.47
2023-04-29T07:40:57.595Z,19.47
2023-04-29T07:43:24.224Z,19.48
2023-04-29T07:45:50.950Z,19.51
2023-04-29T07:48:17.509Z,19.52
2023-04-29T07:50:44.429Z,19.54
2023-04-29T07:53:11.100Z,19.55
2023-04-29T07:55:38.548Z,19.58
2023-04-29T07:58:05.131Z,19.60
2023-04-29T08:00:31.755Z,19.61
2023-04-29T08:02:58.626Z,19.63
2023-04-29T08:05:26.888Z,19.65
2023-04-29T08:07:53.792Z,19.68
2023-04-29T08:10:22.561Z,19.67
2023-04-29T08:12:49.910Z,19.67
2023-04-29T08:15:18.395Z,19.65
2023-04-29T08:17:44.979Z,19.63
2023-04-29T08:20:11.990Z,19.61
2023-04-29T08:22:38.580Z,19.59
2023-04-29T08:25:05.719Z,19.56
2023-04-29T08:27:32.295Z,19.56
2023-04-29T08:29:59.158Z,19.55
2023-04-29T08:32:25.801Z,19.51
2023-04-29T08:34:53.049Z,19.50
2023-04-29T08:37:20.745Z,19.49
2023-04-29T08:39:48.016Z,19.47
2023-04-29T08:42:14.626Z,19.45
2023-04-29T08:44:41.908Z,19.44
2023-04-29T08:47:09.110Z,19.44
2023-04-29T08:49:38.100Z,19.43
2023-04-29T08:52:05.001Z,19.42
2023-04-29T08:54:32.909Z,19.42
2023-04-29T08:57:00.630Z,19.42
2023-04-29T08:59:28.318Z,19.41
2023-04-29T09:01:56.394Z,19.41
2023-04-29T09:05:08.416Z,19.39
2023-04-29T09:07:36.184Z,19.41
2023-04-29T09:10:04.788Z,19.41
2023-04-29T09:12:31.496Z,19.42
2023-04-29T09:14:59.758Z,19.44
2023-04-29T09:17:44.391Z,19.44
2023-04-29T09:20:22.851Z,19.45
2023-04-29T09:22:53.479Z,19.47
2023-04-29T09:25:20.857Z,19.45
2023-04-29T09:27:47.616Z,19.46
2023-04-29T09:30:16.515Z,19.47
2023-04-29T09:32:45.139Z,19.51
2023-04-29T09:35:29.765Z,19.52
2023-04-29T09:38:13.870Z,19.57
2023-04-29T09:40:57.496Z,19.62
2023-04-29T09:43:25.330Z,19.66
2023-04-29T09:45:51.939Z,19.68
2023-04-29T09:48:18.871Z,19.71
2023-04-29T09:50:59.856Z,19.72
2023-04-29T09:53:31.409Z,19.77
2023-04-29T09:56:00.521Z,19.80
2023-04-29T09:58:36.891Z,19.89
2023-04-29T10:01:04.519Z,19.96
2023-04-29T10:03:37.924Z,20.05
2023-04-29T10:06:06.838Z,20.14
2023-04-29T10:08:34.652Z,20.23
2023-04-29T10:11:03.777Z,20.31
2023-04-29T10:13:31.419Z,20.40
2023-04-29T10:16:09.893Z,20.46
2023-04-29T10:18:37.904Z,20.54
2023-04-29T10:21:09.108Z,20.58
2023-04-29T10:23:37.551Z,20.61
2023-04-29T10:26:06.237Z,20.62
2023-04-29T10:28:33.268Z,20.62
2023-04-29T10:31:05.517Z,20.67
2023-04-29T10:33:35.374Z,20.70
2023-04-29T10:36:03.304Z,20.74
2023-04-29T10:38:37.007Z,20.77
2023-04-29T10:41:08.463Z,20.76
2023-04-29T10:43:35.271Z,20.82
2023-04-29T10:46:34.305Z,20.79
2023-04-29T10:49:05.021Z,20.83
2023-04-29T10:51:35.857Z,20.78
2023-04-29T10:54:08.294Z,20.74
2023-04-29T10:56:43.226Z,20.68
2023-04-29T10:59:14.547Z,20.64
2023-04-29T11:01:52.194Z,20.59
2023-04-29T11:04:22.859Z,20.59
2023-04-29T11:06:56.673Z,20.57
2023-04-29T11:09:27.232Z,20.56
2023-04-29T11:12:05.598Z,20.54
2023-04-29T11:14:38.768Z,20.55
2023-04-29T11:17:10.763Z,20.55
2023-04-29T11:19:42.239Z,20.56
2023-04-29T11:22:18.290Z,20.57
2023-04-29T11:24:58.695Z,20.60
2023-04-29T11:27:27.202Z,20.61
2023-04-29T11:29:59.011Z,20.60
2023-04-29T11:32:44.745Z,20.60
2023-04-29T11:35:19.703Z,20.63
2023-04-29T11:37:47.306Z,20.72
2023-04-29T11:40:15.254Z,20.82
2023-04-29T11:42:49.230Z,20.90
2023-04-29T11:45:18.270Z,20.98
2023-04-29T11:47:46.655Z,21.06
2023-04-29T11:50:17.098Z,21.13
2023-04-29T11:52:44.788Z,21.18
2023-04-29T11:55:12.180Z,21.25
2023-04-29T11:57:40.233Z,21.30
2023-04-29T12:00:12.900Z,21.35
2023-04-29T12:02:40.412Z,21.38
2023-04-29T12:05:13.086Z,21.42
2023-04-29T12:07:40.137Z,21.46
2023-04-29T12:10:11.736Z,21.48
2023-04-29T12:12:40.968Z,21.49
2023-04-29T12:15:09.883Z,21.52
2023-04-29T12:17:37.102Z,21.53
2023-04-29T12:20:04.221Z,21.55
2023-04-29T12:22:33.782Z,21.58
2023-04-29T12:25:02.855Z,21.58
2023-04-29T12:27:29.644Z,21.59
2023-04-29T12:29:57.260Z,21.59
2023-04-29T12:32:25.529Z,21.60
2023-04-29T12:34:55.529Z,21.61
2023-04-29T12:37:25.971Z,21.61
2023-04-29T12:39:55.082Z,21.61
2023-04-29T12:42:21.639Z,21.63
2023-04-29T12:44:48.939Z,21.62
2023-04-29T12:47:16.843Z,21.62
2023-04-29T12:49:47.975Z,21.61
2023-04-29T12:52:14.889Z,21.62
2023-04-29T12:54:50.813Z,21.62
2023-04-29T12:57:17.479Z,21.63
2023-04-29T12:59:44.014Z,21.63
2023-04-29T13:02:10.627Z,21.62
2023-04-29T13:04:38.145Z,21.62
2023-04-29T13:07:06.017Z,21.61
2023-04-29T13:09:34.037Z,21.62
2023-04-29T13:12:02.567Z,21.61
2023-04-29T13:14:29.218Z,21.62
2023-04-29T13:16:55.925Z,21.62
2023-04-29T13:21:52.263Z,21.61
2023-04-29T13:24:20.200Z,21.61
2023-04-29T13:26:49.584Z,21.60
2023-04-29T13:29:17.478Z,21.60
2023-04-29T13:31:44.190Z,21.60
2023-04-29T13:34:10.890Z,21.59
2023-04-29T13:36:37.497Z,21.59
2023-04-29T13:39:04.017Z,21.59
2023-04-29T13:41:34.437Z,21.59
2023-04-29T13:44:02.263Z,21.58
2023-04-29T13:46:31.475Z,21.57
2023-04-29T13:49:22.781Z,21.57
2023-04-29T13:57:36.856Z,21.56
2023-04-29T14:02:25.162Z,21.55
2023-04-29T14:04:53.400Z,21.54
2023-04-29T14:07:20.892Z,21.53
2023-04-29T14:09:47.529Z,21.53
2023-04-29T14:12:14.074Z,21.53
2023-04-29T14:14:40.678Z,21.52
2023-04-29T14:17:07.325Z,21.53
2023-04-29T14:19:33.834Z,21.52
2023-04-29T14:22:00.375Z,21.52
2023-04-29T14:24:26.864Z,21.52
2023-04-29T14:26:53.504Z,21.52
2023-04-29T14:29:20.883Z,21.52
2023-04-29T14:31:47.593Z,21.52
2023-04-29T14:34:14.246Z,21.51
2023-04-29T14:36:41.103Z,21.50
2023-04-29T14:39:08.399Z,21.52
2023-04-29T14:41:34.971Z,21.51
2023-04-29T14:44:01.650Z,21.50
2023-04-29T14:46:29.210Z,21.50
2023-04-29T14:48:56.159Z,21.51
2023-04-29T14:51:22.793Z,21.50
2023-04-29T14:53:49.335Z,21.51
2023-04-29T14:56:19.053Z,21.50
2023-04-29T14:58:45.685Z,21.49
2023-04-29T15:01:12.261Z,21.49
2023-04-29T15:06:08.296Z,21.49
2023-04-29T15:08:34.954Z,21.49
2023-04-29T15:11:01.493Z,21.48
2023-04-29T15:13:30.039Z,21.48
2023-04-29T15:15:56.948Z,21.49
2023-04-29T15:18:24.062Z,21.47
2023-04-29T15:20:50.628Z,21.47
2023-04-29T15:23:17.146Z,21.47
2023-04-29T15:25:43.740Z,21.46
2023-04-29T15:28:10.413Z,21.48
2023-04-29T15:30:37.020Z,21.46
2023-04-29T15:33:04.644Z,21.46
2023-04-29T15:35:31.676Z,21.46
2023-04-29T15:37:59.289Z,21.46
2023-04-29T15:40:26.217Z,21.44
2023-04-29T15:42:52.702Z,21.45
2023-04-29T15:45:19.325Z,21.45
2023-04-29T15:47:46.495Z,21.44
2023-04-29T15:50:13.243Z,21.45
2023-04-29T15:52:39.772Z,21.43
2023-04-29T15:55:07.314Z,21.43
2023-04-29T15:57:34.749Z,21.43
2023-04-29T16:00:01.627Z,21.43
2023-04-29T16:02:28.286Z,21.42
2023-04-29T16:04:55.231Z,21.42
2023-04-29T16:07:21.827Z,21.42
2023-04-29T16:09:48.393Z,21.42
2023-04-29T16:12:15.036Z,21.41
2023-04-29T16:14:41.860Z,21.41
2023-04-29T16:17:08.489Z,21.42
2023-04-29T16:19:36.599Z,21.41
2023-04-29T16:22:03.893Z,21.41
2023-04-29T16:24:30.475Z,21.41
2023-04-29T16:26:57.230Z,21.39
2023-04-29T16:29:23.815Z,21.39
2023-04-29T16:31:50.501Z,21.39
2023-04-29T16:34:17.363Z,21.39
2023-04-29T16:36:43.882Z,21.38
2023-04-29T16:39:10.398Z,21.38
2023-04-29T16:41:37.477Z,21.37
2023-04-29T16:44:04.117Z,21.36
2023-04-29T16:46:32.428Z,21.38
2023-04-29T16:48:59.115Z,21.36
2023-04-29T16:51:26.068Z,21.36
2023-04-29T16:53:53.515Z,21.35
2023-04-29T16:56:21.518Z,21.35
2023-04-29T16:58:48.633Z,21.35
2023-04-29T17:01:15.877Z,21.35
2023-04-29T17:03:42.601Z,21.34
2023-04-29T17:06:09.212Z,21.33
2023-04-29T17:08:35.841Z,21.34
2023-04-29T17:11:04.944Z,21.34
2023-04-29T17:13:31.628Z,21.32
2023-04-29T17:15:58.411Z,21.32
2023-04-29T17:18:25.076Z,21.32
2023-04-29T17:20:51.727Z,21.32
2023-04-29T17:23:18.361Z,21.31
2023-04-29T17:25:45.091Z,21.31
2023-04-29T17:28:11.738Z,21.31
2023-04-29T17:30:38.410Z,21.29
2023-04-29T17:33:08.786Z,21.30
2023-04-29T17:35:35.333Z,21.29
2023-04-29T17:38:01.871Z,21.28
2023-04-29T17:40:28.561Z,21.28
2023-04-29T17:42:55.090Z,21.27
2023-04-29T17:45:21.736Z,21.26
2023-04-29T17:47:48.488Z,21.25
2023-04-29T17:50:15.210Z,21.23
2023-04-29T17:52:42.386Z,21.24
2023-04-29T17:55:09.617Z,21.19
2023-04-29T17:57:37.981Z,21.19
2023-04-29T18:00:07.390Z,21.17
2023-04-29T18:02:34.813Z,21.17
2023-04-29T18:05:03.405Z,21.16
2023-04-29T18:07:30.066Z,21.16
2023-04-29T18:09:57.108Z,21.16
2023-04-29T18:12:24.777Z,21.15
2023-04-29T18:14:52.023Z,21.14
2023-04-29T18:17:19.107Z,21.14
2023-04-29T18:19:51.858Z,21.13
2023-04-29T18:22:18.635Z,21.11
2023-04-29T18:24:46.187Z,21.10
2023-04-29T18:27:12.779Z,21.08
2023-04-29T18:29:39.470Z,21.06
2023-04-29T18:32:07.955Z,21.03
2023-04-29T18:34:35.064Z,21.00
2023-04-29T18:37:01.899Z,20.97
2023-04-29T18:39:28.628Z,20.92
2023-04-29T18:41:55.973Z,20.91
2023-04-29T18:44:22.516Z,20.86
2023-04-29T18:46:49.261Z,20.83
2023-04-29T18:49:17.688Z,20.79
2023-04-29T18:51:47.600Z,20.75
2023-04-29T18:54:16.553Z,20.71
2023-04-29T18:56:46.479Z,20.69
2023-04-29T18:59:18.845Z,20.64
2023-04-29T19:01:49.035Z,20.61
2023-04-29T19:04:16.672Z,20.59
2023-04-29T19:06:43.540Z,20.55
2023-04-29T19:09:11.347Z,20.53
2023-04-29T19:11:38.044Z,20.51
2023-04-29T19:14:04.896Z,20.49
2023-04-29T19:16:31.547Z,20.46
2023-04-29T19:18:58.105Z,20.42
2023-04-29T19:21:24.681Z,20.42
2023-04-29T19:23:51.236Z,20.38
2023-04-29T19:26:17.961Z,20.36
2023-04-29T19:28:44.468Z,20.34
2023-04-29T19:31:11.823Z,20.33
2023-04-29T19:33:38.638Z,20.31
2023-04-29T19:36:05.201Z,20.29
2023-04-29T19:38:31.773Z,20.27
2023-04-29T19:40:58.332Z,20.24
2023-04-29T19:43:24.967Z,20.21
2023-04-29T19:45:51.533Z,20.18
2023-04-29T19:48:18.038Z,20.17
2023-04-29T19:50:44.653Z,20.14
2023-04-29T19:53:11.546Z,20.11
2023-04-29T19:55:39.901Z,20.08
2023-04-29T19:58:07.038Z,20.06
2023-04-29T20:00:34.524Z,20.04
2023-04-29T20:03:01.247Z,20.02
2023-04-29T20:05:28.814Z,20.00
2023-04-29T20:07:56.089Z,19.96
2023-04-29T20:10:22.774Z,19.95
2023-04-29T20:12:49.459Z,19.91
2023-04-29T20:15:16.447Z,19.90
2023-04-29T20:17:43.107Z,19.89
2023-04-29T20:20:10.556Z,19.87
2023-04-29T20:22:37.269Z,19.86
2023-04-29T20:25:04.110Z,19.83
2023-04-29T20:27:30.753Z,19.82
2023-04-29T20:29:57.473Z,19.80
2023-04-29T20:32:24.205Z,19.80
2023-04-29T20:34:50.973Z,19.78
2023-04-29T20:37:17.646Z,19.76
2023-04-29T20:39:44.517Z,19.75
2023-04-29T20:42:11.252Z,19.73
2023-04-29T20:44:38.456Z,19.72
2023-04-29T20:47:05.851Z,19.72
2023-04-29T20:49:32.827Z,19.70
2023-04-29T20:51:59.927Z,19.70
2023-04-29T20:54:26.487Z,19.69
2023-04-29T20:56:53.036Z,19.67
2023-04-29T20:59:19.562Z,19.64
2023-04-29T21:01:46.409Z,19.63
2023-04-29T21:04:13.029Z,19.62
2023-04-29T21:06:39.601Z,19.62
2023-04-29T21:09:06.160Z,19.60
2023-04-29T21:11:32.716Z,19.60
2023-04-29T21:13:59.288Z,19.60
2023-04-29T21:16:26.313Z,19.57
2023-04-29T21:18:52.963Z,19.55
2023-04-29T21:21:19.538Z,19.56
2023-04-29T21:23:46.177Z,19.55
2023-04-29T21:26:14.976Z,19.55
2023-04-29T21:28:41.768Z,19.54
2023-04-29T21:31:15.090Z,19.53
2023-04-29T21:33:45.086Z,19.51
2023-04-29T21:36:12.207Z,19.51
2023-04-29T21:38:38.734Z,19.51
2023-04-29T21:41:06.192Z,19.51
2023-04-29T21:43:33.349Z,19.49
2023-04-29T21:46:00.479Z,19.49
2023-04-29T21:48:27.522Z,19.48
2023-04-29T21:50:54.076Z,19.49
2023-04-29T21:53:20.812Z,19.47
2023-04-29T21:55:47.892Z,19.49
2023-04-29T21:58:16.007Z,19.47
2023-04-29T22:00:51.185Z,19.46
2023-04-29T22:03:18.020Z,19.47
2023-04-29T22:05:44.595Z,19.47
2023-04-29T22:08:11.409Z,19.48
2023-04-29T22:10:40.152Z,19.48
2023-04-29T22:13:07.530Z,19.47
2023-04-29T22:15:34.128Z,19.46
2023-04-29T22:18:00.909Z,19.46
2023-04-29T22:20:30.366Z,19.46
2023-04-29T22:22:57.092Z,19.45
2023-04-29T22:25:23.763Z,19.44
2023-04-29T22:27:50.395Z,19.44
2023-04-29T22:30:17.785Z,19.43
2023-04-29T22:32:44.567Z,19.42
2023-04-29T22:35:11.282Z,19.41
2023-04-29T22:37:37.914Z,19.40
2023-04-29T22:40:04.899Z,19.40
2023-04-29T22:42:31.420Z,19.39
2023-04-29T22:44:57.907Z,19.39
2023-04-29T22:47:24.434Z,19.37
2023-04-29T22:49:50.942Z,19.37
2023-04-29T22:52:17.452Z,19.37
2023-04-29T22:54:44.063Z,19.37
2023-04-29T22:57:10.737Z,19.35
2023-04-29T22:59:37.237Z,19.34
2023-04-29T23:02:03.812Z,19.32
2023-04-29T23:04:32.348Z,19.31
2023-04-29T23:06:58.942Z,19.30
2023-04-29T23:09:26.108Z,19.30
2023-04-29T23:11:52.648Z,19.30
2023-04-29T23:14:21.670Z,19.28
2023-04-29T23:16:48.226Z,19.28
2023-04-29T23:19:14.767Z,19.27
2023-04-29T23:21:41.468Z,19.24
2023-04-29T23:24:07.953Z,19.23
2023-04-29T23:26:34.449Z,19.22
2023-04-29T23:29:01.016Z,19.22
2023-04-29T23:31:27.600Z,19.21
2023-04-29T23:33:54.174Z,19.20
2023-04-29T23:36:20.698Z,19.19
2023-04-29T23:38:47.264Z,19.18
2023-04-29T23:41:13.780Z,19.17
2023-04-29T23:43:40.290Z,19.15
2023-04-29T23:46:06.884Z,19.15
2023-04-29T23:48:33.401Z,19.14
2023-04-29T23:50:59.948Z,19.13
2023-04-29T23:53:26.562Z,19.13
2023-04-29T23:55:53.134Z,19.11
2023-04-29T23:58:19.635Z,19.10
